sensor_id;sensor_type;location;lat;lon;timestamp;temperature;humidity
25188;DHT22;13141;50.414;8.050;2023-09-18T00:00:08;20.90;99.90
25188;DHT22;13141;50.414;8.050;2023-09-18T00:02:34;20.90;99.90
25188;DHT22;13141;50.414;8.050;2023-09-18T00:04:59;21.00;99.90
25188;DHT22;13141;50.414;8.050;2023-09-18T00:07:25;20.90;99.90
25188;DHT22;13141;50.414;8.050;2023-09-18T00:09:53;20.90;99.90
25188;DHT22;13141;50.414;8.050;2023-09-18T00:12:19;20.90;99.90
25188;DHT22;13141;50.414;8.050;2023-09-18T00:14:48;20.90;99.90
25188;DHT22;13141;50.414;8.050;2023-09-18T00:17:16;21.00;99.90
25188;DHT22;13141;50.414;8.050;2023-09-18T00:19:42;21.10;99.90
25188;DHT22;13141;50.414;8.050;2023-09-18T00:22:08;20.90;99.90
25188;DHT22;13141;50.414;8.050;2023-09-18T00:24:34;20.90;99.90
25188;DHT22;13141;50.414;8.050;2023-09-18T00:27:01;20.90;99.90
25188;DHT22;13141;50.414;8.050;2023-09-18T00:29:27;20.80;99.90
25188;DHT22;13141;50.414;8.050;2023-09-18T00:31:52;20.70;99.90
25188;DHT22;13141;50.414;8.050;2023-09-18T00:34:18;20.50;99.90
25188;DHT22;13141;50.414;8.050;2023-09-18T00:36:44;20.90;99.90
25188;DHT22;13141;50.414;8.050;2023-09-18T00:39:09;20.60;99.90
25188;DHT22;13141;50.414;8.050;2023-09-18T00:41:36;20.60;99.90
25188;DHT22;13141;50.414;8.050;2023-09-18T00:44:04;20.50;99.90
25188;DHT22;13141;50.414;8.050;2023-09-18T00:46:30;20.50;99.90
25188;DHT22;13141;50.414;8.050;2023-09-18T00:48:56;20.50;99.90
25188;DHT22;13141;50.414;8.050;2023-09-18T00:51:22;20.50;99.90
25188;DHT22;13141;50.414;8.050;2023-09-18T00:53:48;20.40;99.90
25188;DHT22;13141;50.414;8.050;2023-09-18T00:56:17;20.50;99.90
25188;DHT22;13141;50.414;8.050;2023-09-18T00:58:46;19.90;99.90
25188;DHT22;13141;50.414;8.050;2023-09-18T01:01:16;20.10;99.90
25188;DHT22;13141;50.414;8.050;2023-09-18T01:03:43;20.30;99.90
25188;DHT22;13141;50.414;8.050;2023-09-18T01:06:09;20.30;99.90
25188;DHT22;13141;50.414;8.050;2023-09-18T01:08:37;20.20;99.90
25188;DHT22;13141;50.414;8.050;2023-09-18T01:11:06;20.20;99.90
25188;DHT22;13141;50.414;8.050;2023-09-18T01:13:36;20.20;99.90
25188;DHT22;13141;50.414;8.050;2023-09-18T01:16:08;20.20;99.90
25188;DHT22;13141;50.414;8.050;2023-09-18T01:18:37;19.70;99.90
25188;DHT22;13141;50.414;8.050;2023-09-18T01:21:03;20.40;99.90
25188;DHT22;13141;50.414;8.050;2023-09-18T01:23:30;20.10;99.90
25188;DHT22;13141;50.414;8.050;2023-09-18T01:25:55;20.20;99.90
25188;DHT22;13141;50.414;8.050;2023-09-18T01:28:21;19.90;99.90
25188;DHT22;13141;50.414;8.050;2023-09-18T01:30:47;20.00;99.90
25188;DHT22;13141;50.414;8.050;2023-09-18T01:33:13;19.90;99.90
25188;DHT22;13141;50.414;8.050;2023-09-18T01:35:40;20.10;99.90
25188;DHT22;13141;50.414;8.050;2023-09-18T01:38:09;19.90;99.90
25188;DHT22;13141;50.414;8.050;2023-09-18T01:40:37;19.90;99.90
25188;DHT22;13141;50.414;8.050;2023-09-18T01:43:03;19.80;99.90
25188;DHT22;13141;50.414;8.050;2023-09-18T01:45:29;20.00;99.90
25188;DHT22;13141;50.414;8.050;2023-09-18T01:47:55;19.80;99.90
25188;DHT22;13141;50.414;8.050;2023-09-18T01:50:20;19.80;99.90
25188;DHT22;13141;50.414;8.050;2023-09-18T01:52:46;19.80;99.90
25188;DHT22;13141;50.414;8.050;2023-09-18T01:55:12;19.80;99.90
25188;DHT22;13141;50.414;8.050;2023-09-18T01:57:39;19.90;99.90
25188;DHT22;13141;50.414;8.050;2023-09-18T02:00:07;20.10;99.90
25188;DHT22;13141;50.414;8.050;2023-09-18T02:02:35;20.00;99.90
25188;DHT22;13141;50.414;8.050;2023-09-18T02:05:01;19.90;99.90
25188;DHT22;13141;50.414;8.050;2023-09-18T02:07:26;19.60;99.90
25188;DHT22;13141;50.414;8.050;2023-09-18T02:09:52;19.50;99.90
25188;DHT22;13141;50.414;8.050;2023-09-18T02:12:18;19.60;99.90
25188;DHT22;13141;50.414;8.050;2023-09-18T02:14:45;19.60;99.90
25188;DHT22;13141;50.414;8.050;2023-09-18T02:17:11;19.40;99.90
25188;DHT22;13141;50.414;8.050;2023-09-18T02:19:37;19.50;99.90
25188;DHT22;13141;50.414;8.050;2023-09-18T02:22:04;19.50;99.90
25188;DHT22;13141;50.414;8.050;2023-09-18T02:24:30;19.60;99.90
25188;DHT22;13141;50.414;8.050;2023-09-18T02:26:55;19.90;99.90
25188;DHT22;13141;50.414;8.050;2023-09-18T02:29:21;19.70;99.90
25188;DHT22;13141;50.414;8.050;2023-09-18T02:31:48;19.80;99.90
25188;DHT22;13141;50.414;8.050;2023-09-18T02:34:14;20.00;99.90
25188;DHT22;13141;50.414;8.050;2023-09-18T02:36:39;20.00;99.90
25188;DHT22;13141;50.414;8.050;2023-09-18T02:39:05;19.90;99.90
25188;DHT22;13141;50.414;8.050;2023-09-18T02:41:31;20.00;99.90
25188;DHT22;13141;50.414;8.050;2023-09-18T02:43:56;20.00;99.90
25188;DHT22;13141;50.414;8.050;2023-09-18T02:46:22;20.10;99.90
25188;DHT22;13141;50.414;8.050;2023-09-18T02:48:50;20.00;99.90
25188;DHT22;13141;50.414;8.050;2023-09-18T02:51:15;20.00;99.90
25188;DHT22;13141;50.414;8.050;2023-09-18T02:53:41;20.00;99.90
25188;DHT22;13141;50.414;8.050;2023-09-18T02:56:10;19.90;99.90
25188;DHT22;13141;50.414;8.050;2023-09-18T02:58:36;19.90;99.90
25188;DHT22;13141;50.414;8.050;2023-09-18T03:01:02;19.90;99.90
25188;DHT22;13141;50.414;8.050;2023-09-18T03:03:28;20.10;99.90
25188;DHT22;13141;50.414;8.050;2023-09-18T03:06:00;20.00;99.90
25188;DHT22;13141;50.414;8.050;2023-09-18T03:08:26;20.10;99.90
25188;DHT22;13141;50.414;8.050;2023-09-18T03:10:52;20.20;99.90
25188;DHT22;13141;50.414;8.050;2023-09-18T03:13:18;20.10;99.90
25188;DHT22;13141;50.414;8.050;2023-09-18T03:15:46;20.00;99.90
25188;DHT22;13141;50.414;8.050;2023-09-18T03:18:12;20.20;99.90
25188;DHT22;13141;50.414;8.050;2023-09-18T03:20:38;19.90;99.90
25188;DHT22;13141;50.414;8.050;2023-09-18T03:23:05;19.80;99.90
25188;DHT22;13141;50.414;8.050;2023-09-18T03:25:31;20.00;99.90
25188;DHT22;13141;50.414;8.050;2023-09-18T03:27:57;19.80;99.90
25188;DHT22;13141;50.414;8.050;2023-09-18T03:30:24;19.80;99.90
25188;DHT22;13141;50.414;8.050;2023-09-18T03:32:50;19.70;99.90
25188;DHT22;13141;50.414;8.050;2023-09-18T03:35:16;19.60;99.90
25188;DHT22;13141;50.414;8.050;2023-09-18T03:37:43;19.50;99.90
25188;DHT22;13141;50.414;8.050;2023-09-18T03:40:13;19.50;99.90
25188;DHT22;13141;50.414;8.050;2023-09-18T03:42:39;19.50;99.90
25188;DHT22;13141;50.414;8.050;2023-09-18T03:45:06;19.50;99.90
25188;DHT22;13141;50.414;8.050;2023-09-18T03:47:33;19.30;99.90
25188;DHT22;13141;50.414;8.050;2023-09-18T03:49:59;19.60;99.90
25188;DHT22;13141;50.414;8.050;2023-09-18T03:52:25;19.60;99.90
25188;DHT22;13141;50.414;8.050;2023-09-18T03:54:50;19.60;99.90
25188;DHT22;13141;50.414;8.050;2023-09-18T03:57:17;19.80;99.90
25188;DHT22;13141;50.414;8.050;2023-09-18T03:59:43;19.20;99.90
25188;DHT22;13141;50.414;8.050;2023-09-18T04:02:09;19.50;99.90
25188;DHT22;13141;50.414;8.050;2023-09-18T04:04:35;19.70;99.90
25188;DHT22;13141;50.414;8.050;2023-09-18T04:07:05;19.40;99.90
25188;DHT22;13141;50.414;8.050;2023-09-18T04:09:37;19.40;99.90
25188;DHT22;13141;50.414;8.050;2023-09-18T04:12:04;19.40;99.90
25188;DHT22;13141;50.414;8.050;2023-09-18T04:14:31;19.10;99.90
25188;DHT22;13141;50.414;8.050;2023-09-18T04:16:57;19.60;99.90
25188;DHT22;13141;50.414;8.050;2023-09-18T04:19:22;19.90;99.90
25188;DHT22;13141;50.414;8.050;2023-09-18T04:21:48;19.70;99.90
25188;DHT22;13141;50.414;8.050;2023-09-18T04:24:15;19.40;99.90
25188;DHT22;13141;50.414;8.050;2023-09-18T04:26:41;20.00;99.90
25188;DHT22;13141;50.414;8.050;2023-09-18T04:29:08;20.00;99.90
25188;DHT22;13141;50.414;8.050;2023-09-18T04:31:35;19.70;99.90
25188;DHT22;13141;50.414;8.050;2023-09-18T04:34:02;19.80;99.90
25188;DHT22;13141;50.414;8.050;2023-09-18T04:36:27;19.70;99.90
25188;DHT22;13141;50.414;8.050;2023-09-18T04:38:56;19.70;99.90
25188;DHT22;13141;50.414;8.050;2023-09-18T04:41:21;19.60;99.90
25188;DHT22;13141;50.414;8.050;2023-09-18T04:43:47;19.60;99.90
25188;DHT22;13141;50.414;8.050;2023-09-18T04:46:13;19.70;99.90
25188;DHT22;13141;50.414;8.050;2023-09-18T04:48:42;19.80;99.90
25188;DHT22;13141;50.414;8.050;2023-09-18T04:51:12;19.80;99.90
25188;DHT22;13141;50.414;8.050;2023-09-18T04:53:47;20.00;99.90
25188;DHT22;13141;50.414;8.050;2023-09-18T04:56:18;19.90;99.90
25188;DHT22;13141;50.414;8.050;2023-09-18T04:58:44;20.00;99.90
25188;DHT22;13141;50.414;8.050;2023-09-18T05:01:10;20.00;99.90
25188;DHT22;13141;50.414;8.050;2023-09-18T05:03:36;19.90;99.90
25188;DHT22;13141;50.414;8.050;2023-09-18T05:06:09;20.00;99.90
25188;DHT22;13141;50.414;8.050;2023-09-18T05:08:35;20.00;99.90
25188;DHT22;13141;50.414;8.050;2023-09-18T05:11:00;19.90;99.90
25188;DHT22;13141;50.414;8.050;2023-09-18T05:13:29;19.90;99.90
25188;DHT22;13141;50.414;8.050;2023-09-18T05:16:00;20.10;99.90
25188;DHT22;13141;50.414;8.050;2023-09-18T05:18:26;20.00;99.90
25188;DHT22;13141;50.414;8.050;2023-09-18T05:20:51;19.90;99.90
25188;DHT22;13141;50.414;8.050;2023-09-18T05:23:20;19.70;99.90
25188;DHT22;13141;50.414;8.050;2023-09-18T05:25:49;19.80;99.90
25188;DHT22;13141;50.414;8.050;2023-09-18T05:28:19;19.50;99.90
25188;DHT22;13141;50.414;8.050;2023-09-18T05:30:47;19.50;99.90
25188;DHT22;13141;50.414;8.050;2023-09-18T05:33:14;19.40;99.90
25188;DHT22;13141;50.414;8.050;2023-09-18T05:35:43;19.40;99.90
25188;DHT22;13141;50.414;8.050;2023-09-18T05:38:09;19.50;99.90
25188;DHT22;13141;50.414;8.050;2023-09-18T05:40:42;19.60;99.90
25188;DHT22;13141;50.414;8.050;2023-09-18T05:43:08;19.70;99.90
25188;DHT22;13141;50.414;8.050;2023-09-18T05:45:34;19.70;99.90
25188;DHT22;13141;50.414;8.050;2023-09-18T05:48:06;19.80;99.90
25188;DHT22;13141;50.414;8.050;2023-09-18T05:50:38;19.50;99.90
25188;DHT22;13141;50.414;8.050;2023-09-18T05:53:07;19.80;99.90
25188;DHT22;13141;50.414;8.050;2023-09-18T05:55:33;19.80;99.90
25188;DHT22;13141;50.414;8.050;2023-09-18T05:58:01;20.00;99.90
25188;DHT22;13141;50.414;8.050;2023-09-18T06:00:27;19.80;99.90
25188;DHT22;13141;50.414;8.050;2023-09-18T06:02:53;19.90;99.90
25188;DHT22;13141;50.414;8.050;2023-09-18T06:05:19;19.90;99.90
25188;DHT22;13141;50.414;8.050;2023-09-18T06:07:47;19.90;99.90
25188;DHT22;13141;50.414;8.050;2023-09-18T06:10:13;19.90;99.90
25188;DHT22;13141;50.414;8.050;2023-09-18T06:12:42;19.90;99.90
25188;DHT22;13141;50.414;8.050;2023-09-18T06:15:10;19.80;99.90
25188;DHT22;13141;50.414;8.050;2023-09-18T06:17:38;19.90;99.90
25188;DHT22;13141;50.414;8.050;2023-09-18T06:20:05;19.90;99.90
25188;DHT22;13141;50.414;8.050;2023-09-18T06:22:34;19.90;99.90
25188;DHT22;13141;50.414;8.050;2023-09-18T06:25:08;19.90;99.90
25188;DHT22;13141;50.414;8.050;2023-09-18T06:27:35;19.50;99.90
25188;DHT22;13141;50.414;8.050;2023-09-18T06:30:03;19.90;99.90
25188;DHT22;13141;50.414;8.050;2023-09-18T06:32:33;19.90;99.90
25188;DHT22;13141;50.414;8.050;2023-09-18T06:35:00;20.00;99.90
25188;DHT22;13141;50.414;8.050;2023-09-18T06:37:26;19.90;99.90
25188;DHT22;13141;50.414;8.050;2023-09-18T06:39:52;20.20;99.90
25188;DHT22;13141;50.414;8.050;2023-09-18T06:42:18;20.00;99.90
25188;DHT22;13141;50.414;8.050;2023-09-18T06:44:46;20.10;99.90
25188;DHT22;13141;50.414;8.050;2023-09-18T06:47:18;20.10;99.90
25188;DHT22;13141;50.414;8.050;2023-09-18T06:49:46;19.60;99.90
25188;DHT22;13141;50.414;8.050;2023-09-18T06:52:12;20.00;99.90
25188;DHT22;13141;50.414;8.050;2023-09-18T06:54:38;20.10;99.90
25188;DHT22;13141;50.414;8.050;2023-09-18T06:57:04;20.20;99.90
25188;DHT22;13141;50.414;8.050;2023-09-18T06:59:29;20.20;99.90
25188;DHT22;13141;50.414;8.050;2023-09-18T07:01:55;20.30;99.90
25188;DHT22;13141;50.414;8.050;2023-09-18T07:04:21;20.40;99.90
25188;DHT22;13141;50.414;8.050;2023-09-18T07:06:48;20.40;99.90
25188;DHT22;13141;50.414;8.050;2023-09-18T07:09:13;20.40;99.90
25188;DHT22;13141;50.414;8.050;2023-09-18T07:11:39;20.40;99.90
25188;DHT22;13141;50.414;8.050;2023-09-18T07:14:05;20.20;99.90
25188;DHT22;13141;50.414;8.050;2023-09-18T07:16:50;20.50;99.90
25188;DHT22;13141;50.414;8.050;2023-09-18T07:19:16;20.60;99.90
25188;DHT22;13141;50.414;8.050;2023-09-18T07:21:42;20.70;99.90
25188;DHT22;13141;50.414;8.050;2023-09-18T07:24:09;20.70;99.90
25188;DHT22;13141;50.414;8.050;2023-09-18T07:26:35;20.70;99.90
25188;DHT22;13141;50.414;8.050;2023-09-18T07:29:00;20.60;99.90
25188;DHT22;13141;50.414;8.050;2023-09-18T07:31:26;20.60;99.90
25188;DHT22;13141;50.414;8.050;2023-09-18T07:33:52;20.60;99.90
25188;DHT22;13141;50.414;8.050;2023-09-18T07:36:18;20.60;99.90
25188;DHT22;13141;50.414;8.050;2023-09-18T07:38:44;20.50;99.90
25188;DHT22;13141;50.414;8.050;2023-09-18T07:41:11;20.50;99.90
25188;DHT22;13141;50.414;8.050;2023-09-18T07:43:37;20.60;99.90
25188;DHT22;13141;50.414;8.050;2023-09-18T07:46:03;20.60;99.90
25188;DHT22;13141;50.414;8.050;2023-09-18T07:48:29;20.60;99.90
25188;DHT22;13141;50.414;8.050;2023-09-18T07:50:54;20.60;99.90
25188;DHT22;13141;50.414;8.050;2023-09-18T07:53:20;20.60;99.90
25188;DHT22;13141;50.414;8.050;2023-09-18T07:55:47;20.60;99.90
25188;DHT22;13141;50.414;8.050;2023-09-18T07:58:14;20.70;99.90
25188;DHT22;13141;50.414;8.050;2023-09-18T08:00:40;20.70;99.90
25188;DHT22;13141;50.414;8.050;2023-09-18T08:03:05;20.80;99.90
25188;DHT22;13141;50.414;8.050;2023-09-18T08:05:31;20.80;99.90
25188;DHT22;13141;50.414;8.050;2023-09-18T08:07:57;20.90;99.90
25188;DHT22;13141;50.414;8.050;2023-09-18T08:10:22;20.80;99.90
25188;DHT22;13141;50.414;8.050;2023-09-18T08:12:48;20.80;99.90
25188;DHT22;13141;50.414;8.050;2023-09-18T08:15:15;20.80;99.90
25188;DHT22;13141;50.414;8.050;2023-09-18T08:17:41;20.90;99.90
25188;DHT22;13141;50.414;8.050;2023-09-18T08:20:08;21.00;99.90
25188;DHT22;13141;50.414;8.050;2023-09-18T08:22:34;21.10;99.90
25188;DHT22;13141;50.414;8.050;2023-09-18T08:24:59;21.10;99.90
25188;DHT22;13141;50.414;8.050;2023-09-18T08:27:25;21.10;99.90
25188;DHT22;13141;50.414;8.050;2023-09-18T08:29:51;21.10;99.90
25188;DHT22;13141;50.414;8.050;2023-09-18T08:32:18;21.10;99.90
25188;DHT22;13141;50.414;8.050;2023-09-18T08:34:43;21.20;99.90
25188;DHT22;13141;50.414;8.050;2023-09-18T08:37:09;21.20;99.90
25188;DHT22;13141;50.414;8.050;2023-09-18T08:39:35;21.20;99.90
25188;DHT22;13141;50.414;8.050;2023-09-18T08:42:03;21.20;99.90
25188;DHT22;13141;50.414;8.050;2023-09-18T08:44:29;21.20;99.90
25188;DHT22;13141;50.414;8.050;2023-09-18T08:46:56;21.20;99.90
25188;DHT22;13141;50.414;8.050;2023-09-18T08:49:24;21.30;99.90
25188;DHT22;13141;50.414;8.050;2023-09-18T08:51:51;21.30;99.90
25188;DHT22;13141;50.414;8.050;2023-09-18T08:54:19;21.30;99.90
25188;DHT22;13141;50.414;8.050;2023-09-18T08:56:45;21.30;99.90
25188;DHT22;13141;50.414;8.050;2023-09-18T08:59:12;21.30;99.90
25188;DHT22;13141;50.414;8.050;2023-09-18T09:01:38;21.30;99.90
25188;DHT22;13141;50.414;8.050;2023-09-18T09:04:04;21.30;99.90
25188;DHT22;13141;50.414;8.050;2023-09-18T09:06:31;21.30;99.90
25188;DHT22;13141;50.414;8.050;2023-09-18T09:08:57;21.30;99.90
25188;DHT22;13141;50.414;8.050;2023-09-18T09:11:23;21.30;99.90
25188;DHT22;13141;50.414;8.050;2023-09-18T09:14:08;21.40;99.90
25188;DHT22;13141;50.414;8.050;2023-09-18T09:16:34;21.40;99.90
25188;DHT22;13141;50.414;8.050;2023-09-18T09:19:00;21.40;99.90
25188;DHT22;13141;50.414;8.050;2023-09-18T09:21:40;21.40;99.90
25188;DHT22;13141;50.414;8.050;2023-09-18T09:24:06;21.50;99.90
25188;DHT22;13141;50.414;8.050;2023-09-18T09:26:32;21.50;99.90
25188;DHT22;13141;50.414;8.050;2023-09-18T09:29:14;21.40;99.90
25188;DHT22;13141;50.414;8.050;2023-09-18T09:31:40;21.40;99.90
25188;DHT22;13141;50.414;8.050;2023-09-18T09:34:06;21.50;99.90
25188;DHT22;13141;50.414;8.050;2023-09-18T09:36:32;21.50;99.90
25188;DHT22;13141;50.414;8.050;2023-09-18T09:39:00;21.60;99.90
25188;DHT22;13141;50.414;8.050;2023-09-18T09:41:26;21.60;99.90
25188;DHT22;13141;50.414;8.050;2023-09-18T09:43:52;21.60;99.90
25188;DHT22;13141;50.414;8.050;2023-09-18T09:46:19;21.60;99.90
25188;DHT22;13141;50.414;8.050;2023-09-18T09:48:58;21.80;99.90
25188;DHT22;13141;50.414;8.050;2023-09-18T09:51:25;21.60;99.90
25188;DHT22;13141;50.414;8.050;2023-09-18T09:53:51;21.60;99.90
25188;DHT22;13141;50.414;8.050;2023-09-18T09:56:18;21.60;99.90
25188;DHT22;13141;50.414;8.050;2023-09-18T09:58:44;21.60;99.90
25188;DHT22;13141;50.414;8.050;2023-09-18T10:01:25;21.70;99.90
25188;DHT22;13141;50.414;8.050;2023-09-18T10:03:51;21.80;99.90
25188;DHT22;13141;50.414;8.050;2023-09-18T10:06:17;21.80;99.90
25188;DHT22;13141;50.414;8.050;2023-09-18T10:08:43;22.00;99.90
25188;DHT22;13141;50.414;8.050;2023-09-18T10:11:12;21.70;99.90
25188;DHT22;13141;50.414;8.050;2023-09-18T10:13:42;21.70;99.90
25188;DHT22;13141;50.414;8.050;2023-09-18T10:16:11;21.80;99.90
25188;DHT22;13141;50.414;8.050;2023-09-18T10:18:41;22.00;99.90
25188;DHT22;13141;50.414;8.050;2023-09-18T10:21:13;22.00;99.90
25188;DHT22;13141;50.414;8.050;2023-09-18T10:23:54;22.00;99.90
25188;DHT22;13141;50.414;8.050;2023-09-18T10:26:23;21.90;99.90
25188;DHT22;13141;50.414;8.050;2023-09-18T10:28:51;22.00;99.90
25188;DHT22;13141;50.414;8.050;2023-09-18T10:31:21;22.00;99.90
25188;DHT22;13141;50.414;8.050;2023-09-18T10:33:48;22.00;99.90
25188;DHT22;13141;50.414;8.050;2023-09-18T10:36:15;22.00;99.90
25188;DHT22;13141;50.414;8.050;2023-09-18T10:38:41;21.90;99.90
25188;DHT22;13141;50.414;8.050;2023-09-18T10:41:11;22.00;99.90
25188;DHT22;13141;50.414;8.050;2023-09-18T10:46:24;22.00;99.90
25188;DHT22;13141;50.414;8.050;2023-09-18T10:49:30;22.10;99.90
25188;DHT22;13141;50.414;8.050;2023-09-18T10:52:31;21.90;99.90
25188;DHT22;13141;50.414;8.050;2023-09-18T10:55:17;21.90;99.90
25188;DHT22;13141;50.414;8.050;2023-09-18T10:57:56;21.90;99.90
25188;DHT22;13141;50.414;8.050;2023-09-18T11:00:25;21.90;99.90
25188;DHT22;13141;50.414;8.050;2023-09-18T11:05:48;21.90;99.90
25188;DHT22;13141;50.414;8.050;2023-09-18T11:08:28;21.90;99.90
25188;DHT22;13141;50.414;8.050;2023-09-18T11:11:06;22.00;99.90
25188;DHT22;13141;50.414;8.050;2023-09-18T11:13:35;22.10;99.90
25188;DHT22;13141;50.414;8.050;2023-09-18T11:16:02;22.00;99.90
25188;DHT22;13141;50.414;8.050;2023-09-18T11:18:38;22.00;99.90
25188;DHT22;13141;50.414;8.050;2023-09-18T11:21:11;21.90;99.90
25188;DHT22;13141;50.414;8.050;2023-09-18T11:23:39;21.90;99.90
25188;DHT22;13141;50.414;8.050;2023-09-18T11:26:07;22.00;99.90
25188;DHT22;13141;50.414;8.050;2023-09-18T11:28:33;22.00;99.90
25188;DHT22;13141;50.414;8.050;2023-09-18T11:30:59;22.00;99.90
25188;DHT22;13141;50.414;8.050;2023-09-18T11:33:32;22.10;99.90
25188;DHT22;13141;50.414;8.050;2023-09-18T11:36:03;21.70;99.90
25188;DHT22;13141;50.414;8.050;2023-09-18T11:38:31;22.20;99.90
25188;DHT22;13141;50.414;8.050;2023-09-18T11:40:57;22.20;99.90
25188;DHT22;13141;50.414;8.050;2023-09-18T11:43:24;22.50;99.90
25188;DHT22;13141;50.414;8.050;2023-09-18T11:45:52;22.50;99.90
25188;DHT22;13141;50.414;8.050;2023-09-18T11:48:18;22.60;99.90
25188;DHT22;13141;50.414;8.050;2023-09-18T11:50:44;22.80;99.90
25188;DHT22;13141;50.414;8.050;2023-09-18T11:53:11;22.80;99.90
25188;DHT22;13141;50.414;8.050;2023-09-18T11:55:39;22.70;99.90
25188;DHT22;13141;50.414;8.050;2023-09-18T11:58:06;22.90;99.90
25188;DHT22;13141;50.414;8.050;2023-09-18T12:00:31;23.00;99.90
25188;DHT22;13141;50.414;8.050;2023-09-18T12:02:57;22.90;99.90
25188;DHT22;13141;50.414;8.050;2023-09-18T12:05:23;23.10;99.90
25188;DHT22;13141;50.414;8.050;2023-09-18T12:07:49;23.40;99.90
25188;DHT22;13141;50.414;8.050;2023-09-18T12:10:16;23.80;99.90
25188;DHT22;13141;50.414;8.050;2023-09-18T12:12:43;23.90;99.90
25188;DHT22;13141;50.414;8.050;2023-09-18T12:15:11;24.00;99.90
25188;DHT22;13141;50.414;8.050;2023-09-18T12:17:37;24.00;99.90
25188;DHT22;13141;50.414;8.050;2023-09-18T12:20:03;23.80;99.90
25188;DHT22;13141;50.414;8.050;2023-09-18T12:22:30;23.60;99.90
25188;DHT22;13141;50.414;8.050;2023-09-18T12:25:08;23.60;99.90
25188;DHT22;13141;50.414;8.050;2023-09-18T12:27:35;23.50;99.90
25188;DHT22;13141;50.414;8.050;2023-09-18T12:30:03;23.30;99.90
25188;DHT22;13141;50.414;8.050;2023-09-18T12:32:29;23.10;99.90
25188;DHT22;13141;50.414;8.050;2023-09-18T12:34:55;23.00;99.90
25188;DHT22;13141;50.414;8.050;2023-09-18T12:37:20;23.00;99.90
25188;DHT22;13141;50.414;8.050;2023-09-18T12:39:46;23.00;99.90
25188;DHT22;13141;50.414;8.050;2023-09-18T12:42:12;23.10;99.90
25188;DHT22;13141;50.414;8.050;2023-09-18T12:44:37;23.20;99.90
25188;DHT22;13141;50.414;8.050;2023-09-18T12:47:05;23.20;99.90
25188;DHT22;13141;50.414;8.050;2023-09-18T12:49:32;23.20;99.90
25188;DHT22;13141;50.414;8.050;2023-09-18T12:51:58;23.30;99.90
25188;DHT22;13141;50.414;8.050;2023-09-18T12:54:38;23.50;99.90
25188;DHT22;13141;50.414;8.050;2023-09-18T12:57:05;23.70;99.90
25188;DHT22;13141;50.414;8.050;2023-09-18T12:59:31;23.90;99.90
25188;DHT22;13141;50.414;8.050;2023-09-18T13:01:57;24.10;99.90
25188;DHT22;13141;50.414;8.050;2023-09-18T13:04:25;24.10;99.90
25188;DHT22;13141;50.414;8.050;2023-09-18T13:07:06;24.00;99.90
25188;DHT22;13141;50.414;8.050;2023-09-18T13:09:32;24.00;99.90
25188;DHT22;13141;50.414;8.050;2023-09-18T13:11:58;23.90;99.90
25188;DHT22;13141;50.414;8.050;2023-09-18T13:14:25;23.70;99.90
25188;DHT22;13141;50.414;8.050;2023-09-18T13:16:51;23.70;99.90
25188;DHT22;13141;50.414;8.050;2023-09-18T13:19:17;23.80;99.90
25188;DHT22;13141;50.414;8.050;2023-09-18T13:21:56;23.80;99.90
25188;DHT22;13141;50.414;8.050;2023-09-18T13:24:26;23.90;99.90
25188;DHT22;13141;50.414;8.050;2023-09-18T13:26:53;23.70;99.90
25188;DHT22;13141;50.414;8.050;2023-09-18T13:29:19;23.80;99.90
25188;DHT22;13141;50.414;8.050;2023-09-18T13:31:46;23.70;99.90
25188;DHT22;13141;50.414;8.050;2023-09-18T13:34:13;23.60;99.90
25188;DHT22;13141;50.414;8.050;2023-09-18T13:36:38;23.70;99.90
25188;DHT22;13141;50.414;8.050;2023-09-18T13:39:05;23.80;99.90
25188;DHT22;13141;50.414;8.050;2023-09-18T13:41:31;23.90;99.90
25188;DHT22;13141;50.414;8.050;2023-09-18T13:43:57;24.30;99.90
25188;DHT22;13141;50.414;8.050;2023-09-18T13:46:22;24.30;99.90
25188;DHT22;13141;50.414;8.050;2023-09-18T13:48:48;24.40;99.90
25188;DHT22;13141;50.414;8.050;2023-09-18T13:51:14;24.50;99.90
25188;DHT22;13141;50.414;8.050;2023-09-18T13:53:40;24.60;99.90
25188;DHT22;13141;50.414;8.050;2023-09-18T13:56:07;25.00;99.90
25188;DHT22;13141;50.414;8.050;2023-09-18T13:58:33;25.40;99.90
25188;DHT22;13141;50.414;8.050;2023-09-18T14:00:59;25.40;99.90
25188;DHT22;13141;50.414;8.050;2023-09-18T14:03:24;25.40;99.90
25188;DHT22;13141;50.414;8.050;2023-09-18T14:05:50;25.40;99.90
25188;DHT22;13141;50.414;8.050;2023-09-18T14:08:16;25.60;99.90
25188;DHT22;13141;50.414;8.050;2023-09-18T14:10:42;25.40;99.90
25188;DHT22;13141;50.414;8.050;2023-09-18T14:13:09;25.60;99.90
25188;DHT22;13141;50.414;8.050;2023-09-18T14:15:34;25.80;99.90
25188;DHT22;13141;50.414;8.050;2023-09-18T14:18:00;26.10;99.90
25188;DHT22;13141;50.414;8.050;2023-09-18T14:20:26;26.30;99.90
25188;DHT22;13141;50.414;8.050;2023-09-18T14:22:51;26.50;99.90
25188;DHT22;13141;50.414;8.050;2023-09-18T14:25:17;26.60;99.90
25188;DHT22;13141;50.414;8.050;2023-09-18T14:27:43;26.70;99.90
25188;DHT22;13141;50.414;8.050;2023-09-18T14:30:12;26.30;99.90
25188;DHT22;13141;50.414;8.050;2023-09-18T14:32:38;26.10;99.90
25188;DHT22;13141;50.414;8.050;2023-09-18T14:35:05;26.30;99.90
25188;DHT22;13141;50.414;8.050;2023-09-18T14:37:31;26.10;99.90
25188;DHT22;13141;50.414;8.050;2023-09-18T14:39:56;25.70;99.90
25188;DHT22;13141;50.414;8.050;2023-09-18T14:42:22;25.30;99.90
25188;DHT22;13141;50.414;8.050;2023-09-18T14:44:47;25.40;99.90
25188;DHT22;13141;50.414;8.050;2023-09-18T14:47:14;25.80;99.90
25188;DHT22;13141;50.414;8.050;2023-09-18T14:49:40;26.30;99.90
25188;DHT22;13141;50.414;8.050;2023-09-18T14:52:06;26.40;99.90
25188;DHT22;13141;50.414;8.050;2023-09-18T14:54:31;26.00;99.90
25188;DHT22;13141;50.414;8.050;2023-09-18T14:56:57;25.00;99.90
25188;DHT22;13141;50.414;8.050;2023-09-18T14:59:23;25.30;99.90
25188;DHT22;13141;50.414;8.050;2023-09-18T15:01:48;25.00;99.90
25188;DHT22;13141;50.414;8.050;2023-09-18T15:04:15;25.00;99.90
25188;DHT22;13141;50.414;8.050;2023-09-18T15:06:41;25.20;99.90
25188;DHT22;13141;50.414;8.050;2023-09-18T15:09:07;25.40;99.90
25188;DHT22;13141;50.414;8.050;2023-09-18T15:11:32;25.50;99.90
25188;DHT22;13141;50.414;8.050;2023-09-18T15:13:58;25.60;99.90
25188;DHT22;13141;50.414;8.050;2023-09-18T15:16:24;25.80;99.90
25188;DHT22;13141;50.414;8.050;2023-09-18T15:18:49;25.90;99.90
25188;DHT22;13141;50.414;8.050;2023-09-18T15:21:16;25.90;99.90
25188;DHT22;13141;50.414;8.050;2023-09-18T15:23:42;25.70;99.90
25188;DHT22;13141;50.414;8.050;2023-09-18T15:26:07;25.50;99.90
25188;DHT22;13141;50.414;8.050;2023-09-18T15:28:33;25.60;99.90
25188;DHT22;13141;50.414;8.050;2023-09-18T15:30:59;25.70;99.90
25188;DHT22;13141;50.414;8.050;2023-09-18T15:33:25;25.60;99.90
25188;DHT22;13141;50.414;8.050;2023-09-18T15:35:50;25.50;99.90